createdAt,value
2022-11-04T00:02:05.323Z,10.90
2022-11-04T00:04:32.212Z,10.90
2022-11-04T00:06:58.990Z,10.90
2022-11-04T00:09:28.501Z,11.00
2022-11-04T00:12:14.219Z,11.00
2022-11-04T00:14:41.014Z,10.90
2022-11-04T00:17:21.830Z,11.00
2022-11-04T00:20:12.243Z,11.00
2022-11-04T00:22:59.581Z,10.90
2022-11-04T00:25:45.142Z,10.90
2022-11-04T00:28:31.889Z,10.90
2022-11-04T00:31:19.847Z,10.80
2022-11-04T00:33:48.679Z,10.80
2022-11-04T00:36:15.976Z,10.80
2022-11-04T00:38:42.930Z,10.80
2022-11-04T00:41:28.787Z,10.80
2022-11-04T00:44:00.672Z,10.70
2022-11-04T00:46:29.375Z,10.70
2022-11-04T00:48:56.120Z,10.70
2022-11-04T00:51:23.432Z,10.60
2022-11-04T00:53:50.739Z,10.60
2022-11-04T00:56:17.475Z,10.50
2022-11-04T00:58:44.174Z,10.40
2022-11-04T01:01:13.587Z,10.30
2022-11-04T01:03:40.437Z,10.20
2022-11-04T01:06:07.274Z,10.10
2022-11-04T01:08:34.623Z,10.00
2022-11-04T01:11:06.764Z,10.00
2022-11-04T01:13:34.255Z,9.90
2022-11-04T01:16:02.229Z,9.80
2022-11-04T01:18:29.193Z,9.70
2022-11-04T01:21:00.208Z,9.50
2022-11-04T01:23:27.678Z,9.50
2022-11-04T01:25:54.416Z,9.40
2022-11-04T01:28:21.164Z,9.50
2022-11-04T01:30:47.873Z,9.40
2022-11-04T01:33:14.680Z,9.30
2022-11-04T01:35:41.564Z,9.20
2022-11-04T01:38:08.551Z,9.20
2022-11-04T01:40:40.137Z,9.10
2022-11-04T01:43:14.905Z,9.10
2022-11-04T01:45:45.050Z,9.10
2022-11-04T01:48:22.225Z,9.00
2022-11-04T01:50:51.190Z,9.00
2022-11-04T01:53:31.929Z,9.00
2022-11-04T01:56:01.701Z,9.00
2022-11-04T01:58:32.348Z,8.90
2022-11-04T02:00:59.190Z,9.00
2022-11-04T02:03:44.568Z,8.90
2022-11-04T02:06:11.625Z,8.90
2022-11-04T02:08:39.489Z,8.90
2022-11-04T02:11:06.644Z,8.90
2022-11-04T02:13:35.567Z,8.80
2022-11-04T02:16:39.003Z,8.90
2022-11-04T02:19:20.754Z,8.80
2022-11-04T02:22:38.140Z,8.90
2022-11-04T02:25:26.094Z,8.80
2022-11-04T02:28:11.622Z,8.80
2022-11-04T02:30:54.891Z,8.90
2022-11-04T02:33:27.712Z,8.80
2022-11-04T02:36:12.481Z,8.80
2022-11-04T02:39:07.900Z,8.90
2022-11-04T02:41:41.990Z,8.90
2022-11-04T02:44:33.287Z,8.90
2022-11-04T02:47:06.441Z,8.80
2022-11-04T02:49:57.347Z,8.80
2022-11-04T02:52:39.632Z,8.80
2022-11-04T02:55:14.406Z,8.90
2022-11-04T02:57:42.987Z,8.80
2022-11-04T03:00:13.298Z,8.70
2022-11-04T03:03:00.481Z,8.70
2022-11-04T03:05:31.768Z,8.70
2022-11-04T03:08:04.353Z,8.80
2022-11-04T03:10:38.358Z,8.70
2022-11-04T03:13:20.258Z,8.70
2022-11-04T03:15:55.805Z,8.70
2022-11-04T03:18:34.669Z,8.70
2022-11-04T03:21:05.275Z,8.70
2022-11-04T03:23:32.736Z,8.70
2022-11-04T03:26:28.513Z,8.70
2022-11-04T03:29:04.074Z,8.80
2022-11-04T03:31:50.520Z,8.70
2022-11-04T03:34:17.289Z,8.70
2022-11-04T03:36:44.242Z,8.80
2022-11-04T03:39:10.986Z,8.70
2022-11-04T03:41:55.494Z,8.70
2022-11-04T03:44:23.214Z,8.70
2022-11-04T03:46:54.097Z,8.60
2022-11-04T03:49:24.539Z,8.60
2022-11-04T03:51:52.085Z,8.70
2022-11-04T03:54:19.548Z,8.70
2022-11-04T03:57:04.463Z,8.70
2022-11-04T03:59:55.440Z,8.70
2022-11-04T04:02:52.243Z,8.60
2022-11-04T04:05:19.101Z,8.60
2022-11-04T04:08:15.576Z,8.60
2022-11-04T04:11:01.004Z,8.50
2022-11-04T04:13:42.660Z,8.60
2022-11-04T04:16:12.195Z,8.60
2022-11-04T04:19:11.393Z,8.60
2022-11-04T04:21:45.270Z,8.60
2022-11-04T04:24:44.965Z,8.50
2022-11-04T04:27:31.067Z,8.50
2022-11-04T04:30:01.672Z,8.50
2022-11-04T04:32:32.693Z,8.50
2022-11-04T04:35:18.131Z,8.60
2022-11-04T04:37:46.075Z,8.70
2022-11-04T04:40:37.349Z,8.60
2022-11-04T04:43:23.736Z,8.50
2022-11-04T04:45:55.466Z,8.50
2022-11-04T04:48:22.229Z,8.50
2022-11-04T04:50:52.511Z,8.50
2022-11-04T04:53:19.275Z,8.60
2022-11-04T04:55:46.012Z,8.50
2022-11-04T04:58:12.698Z,8.50
2022-11-04T05:00:41.531Z,8.60
2022-11-04T05:03:08.730Z,8.70
2022-11-04T05:05:35.740Z,8.60
2022-11-04T05:08:07.181Z,8.60
2022-11-04T05:10:34.355Z,8.70
2022-11-04T05:13:20.160Z,8.60
2022-11-04T05:15:46.861Z,8.60
2022-11-04T05:18:13.664Z,8.60
2022-11-04T05:20:40.603Z,8.50
2022-11-04T05:23:08.673Z,8.50
2022-11-04T05:25:35.599Z,8.50
2022-11-04T05:28:02.817Z,8.50
2022-11-04T05:30:29.993Z,8.50
2022-11-04T05:33:00.047Z,8.50
2022-11-04T05:35:33.435Z,8.50
2022-11-04T05:38:00.316Z,8.50
2022-11-04T05:40:27.090Z,8.30
2022-11-04T05:42:53.887Z,8.30
2022-11-04T05:45:20.637Z,8.30
2022-11-04T05:47:47.345Z,8.30
2022-11-04T05:50:14.023Z,8.40
2022-11-04T05:52:40.801Z,8.40
2022-11-04T05:55:07.971Z,8.30
2022-11-04T05:57:35.644Z,8.30
2022-11-04T06:00:02.734Z,8.30
2022-11-04T06:02:31.279Z,8.30
2022-11-04T06:04:58.132Z,8.40
2022-11-04T06:07:24.895Z,8.30
2022-11-04T06:09:51.563Z,8.20
2022-11-04T06:12:18.415Z,8.20
2022-11-04T06:14:45.266Z,8.20
2022-11-04T06:17:20.094Z,8.20
2022-11-04T06:19:47.216Z,8.10
2022-11-04T06:22:19.218Z,8.20
2022-11-04T06:24:46.111Z,8.20
2022-11-04T06:27:13.121Z,8.20
2022-11-04T06:29:41.163Z,8.10
2022-11-04T06:32:13.875Z,8.10
2022-11-04T06:34:41.023Z,8.00
2022-11-04T06:37:09.230Z,8.00
2022-11-04T06:39:36.653Z,8.10
2022-11-04T06:42:04.217Z,8.00
2022-11-04T06:44:31.012Z,8.00
2022-11-04T06:46:57.799Z,8.10
2022-11-04T06:49:24.641Z,8.10
2022-11-04T06:51:52.075Z,8.00
2022-11-04T06:54:18.855Z,8.00
2022-11-04T06:56:45.803Z,7.90
2022-11-04T06:59:17.750Z,7.90
2022-11-04T07:01:45.166Z,7.90
2022-11-04T07:04:12.255Z,7.90
2022-11-04T07:06:44.118Z,7.90
2022-11-04T07:09:13.690Z,7.80
2022-11-04T07:11:41.568Z,7.90
2022-11-04T07:14:09.101Z,7.90
2022-11-04T07:16:36.658Z,8.00
2022-11-04T07:19:03.982Z,8.10
2022-11-04T07:21:30.899Z,8.10
2022-11-04T07:23:58.011Z,8.00
2022-11-04T07:26:24.779Z,7.90
2022-11-04T07:28:51.645Z,8.00
2022-11-04T07:31:18.762Z,7.90
2022-11-04T07:33:49.924Z,7.90
2022-11-04T07:36:17.309Z,8.00
2022-11-04T07:38:44.629Z,7.80
2022-11-04T07:41:12.162Z,7.80
2022-11-04T07:43:38.988Z,7.70
2022-11-04T07:46:11.715Z,7.80
2022-11-04T07:48:38.921Z,7.90
2022-11-04T07:51:09.062Z,7.80
2022-11-04T07:53:36.095Z,7.50
2022-11-04T07:56:08.278Z,7.60
2022-11-04T07:58:35.119Z,7.80
2022-11-04T08:01:03.865Z,7.50
2022-11-04T08:03:30.724Z,7.70
2022-11-04T08:05:59.402Z,7.60
2022-11-04T08:08:27.255Z,7.60
2022-11-04T08:10:56.997Z,7.70
2022-11-04T08:13:27.313Z,7.80
2022-11-04T08:15:54.039Z,7.70
2022-11-04T08:18:20.834Z,7.50
2022-11-04T08:20:51.936Z,7.60
2022-11-04T08:23:19.436Z,7.50
2022-11-04T08:25:46.640Z,7.60
2022-11-04T08:28:17.501Z,7.50
2022-11-04T08:31:05.695Z,7.50
2022-11-04T08:33:36.813Z,7.50
2022-11-04T08:36:09.036Z,7.70
2022-11-04T08:38:36.104Z,7.60
2022-11-04T08:41:04.970Z,7.50
2022-11-04T08:43:32.450Z,7.60
2022-11-04T08:45:59.147Z,7.60
2022-11-04T08:48:26.835Z,7.50
2022-11-04T08:50:56.487Z,7.50
2022-11-04T08:53:23.216Z,7.60
2022-11-04T08:55:50.319Z,7.70
2022-11-04T08:58:17.950Z,7.60
2022-11-04T09:00:44.736Z,7.60
2022-11-04T09:03:11.787Z,7.70
2022-11-04T09:05:44.865Z,7.70
2022-11-04T09:08:12.450Z,7.60
2022-11-04T09:10:47.227Z,7.70
2022-11-04T09:13:16.013Z,7.50
2022-11-04T09:15:43.337Z,7.50
2022-11-04T09:18:10.248Z,7.50
2022-11-04T09:20:42.085Z,7.50
2022-11-04T09:23:09.550Z,7.60
2022-11-04T09:25:36.760Z,7.50
2022-11-04T09:28:04.644Z,7.40
2022-11-04T09:30:31.777Z,7.50
2022-11-04T09:32:58.794Z,7.50
2022-11-04T09:35:27.466Z,7.50
2022-11-04T09:37:59.193Z,7.60
2022-11-04T09:40:26.169Z,7.70
2022-11-04T09:43:14.215Z,7.50
2022-11-04T09:45:43.256Z,7.50
2022-11-04T09:48:22.114Z,7.70
2022-11-04T09:50:52.568Z,7.50
2022-11-04T09:53:35.815Z,7.60
2022-11-04T09:56:11.459Z,7.60
2022-11-04T09:58:39.298Z,7.60
2022-11-04T10:01:36.410Z,7.70
2022-11-04T10:04:28.342Z,7.60
2022-11-04T10:07:14.045Z,7.70
2022-11-04T10:09:47.293Z,7.70
2022-11-04T10:12:41.578Z,7.80
2022-11-04T10:15:31.789Z,7.90
2022-11-04T10:18:29.383Z,7.80
2022-11-04T10:20:56.075Z,7.80
2022-11-04T10:23:32.074Z,7.60
2022-11-04T10:26:07.748Z,7.80
2022-11-04T10:28:56.298Z,7.70
2022-11-04T10:31:24.337Z,7.80
2022-11-04T10:33:56.271Z,8.00
2022-11-04T10:36:25.383Z,7.90
2022-11-04T10:38:56.472Z,7.90
2022-11-04T10:41:33.111Z,8.00
2022-11-04T10:44:20.346Z,8.10
2022-11-04T10:47:04.490Z,8.10
2022-11-04T10:49:55.000Z,8.20
2022-11-04T10:52:33.689Z,8.10
2022-11-04T10:55:00.598Z,8.10
2022-11-04T10:57:28.112Z,8.00
2022-11-04T11:00:00.355Z,8.00
2022-11-04T11:02:47.056Z,7.90
2022-11-04T11:05:14.998Z,8.10
2022-11-04T11:07:42.191Z,8.00
2022-11-04T11:10:19.825Z,8.20
2022-11-04T11:12:53.754Z,8.20
2022-11-04T11:15:35.868Z,8.10
2022-11-04T11:18:16.513Z,8.10
2022-11-04T11:20:52.873Z,7.80
2022-11-04T11:23:39.912Z,7.90
2022-11-04T11:26:19.376Z,7.80
2022-11-04T11:29:02.107Z,7.90
2022-11-04T11:31:41.181Z,8.00
2022-11-04T11:34:18.134Z,7.90
2022-11-04T11:36:48.107Z,7.90
2022-11-04T11:39:22.858Z,7.90
2022-11-04T11:42:04.042Z,7.90
2022-11-04T11:44:46.846Z,8.10
2022-11-04T11:47:28.006Z,7.90
2022-11-04T11:50:14.845Z,7.80
2022-11-04T11:52:43.871Z,7.80
2022-11-04T11:55:24.906Z,7.80
2022-11-04T12:01:08.221Z,7.80
2022-11-04T12:10:24.063Z,7.70
2022-11-04T12:13:28.122Z,7.70
2022-11-04T12:16:53.374Z,7.90
2022-11-04T12:19:26.431Z,7.80
2022-11-04T12:22:35.596Z,7.70
2022-11-04T12:25:17.335Z,7.60
2022-11-04T12:28:01.312Z,7.50
2022-11-04T12:30:38.189Z,7.60
2022-11-04T12:33:17.089Z,7.50
2022-11-04T12:35:46.919Z,7.60
2022-11-04T12:38:34.304Z,7.60
2022-11-04T12:44:32.236Z,7.70
2022-11-04T12:47:30.281Z,7.60
2022-11-04T12:50:18.374Z,7.70
2022-11-04T12:53:09.844Z,7.60
2022-11-04T12:56:01.155Z,7.60
2022-11-04T12:59:05.982Z,7.50
2022-11-04T13:01:56.457Z,7.70
2022-11-04T13:04:33.893Z,7.50
2022-11-04T13:07:16.135Z,7.40
2022-11-04T13:09:54.308Z,7.30
2022-11-04T13:12:29.996Z,7.30
2022-11-04T13:15:02.424Z,7.30
2022-11-04T13:17:42.496Z,7.20
2022-11-04T13:20:15.037Z,7.30
2022-11-04T13:23:01.904Z,7.50
2022-11-04T13:25:44.921Z,7.40
2022-11-04T13:28:17.775Z,7.40
2022-11-04T13:31:01.519Z,7.30
2022-11-04T13:33:28.405Z,6.90
2022-11-04T13:36:04.502Z,6.70
2022-11-04T13:38:39.266Z,6.90
2022-11-04T13:41:42.036Z,6.80
2022-11-04T13:44:26.998Z,6.80
2022-11-04T13:47:02.603Z,6.90
2022-11-04T13:49:33.826Z,6.90
2022-11-04T13:52:13.422Z,6.60
2022-11-04T13:54:44.645Z,6.60
2022-11-04T13:57:21.877Z,6.70
2022-11-04T14:00:16.716Z,6.80
2022-11-04T14:02:44.567Z,6.80
2022-11-04T14:05:30.116Z,6.90
2022-11-04T14:08:21.032Z,7.00
2022-11-04T14:10:54.144Z,6.80
2022-11-04T14:13:34.992Z,6.70
2022-11-04T14:16:17.492Z,6.60
2022-11-04T14:18:51.045Z,6.60
2022-11-04T14:21:23.979Z,6.60
2022-11-04T14:23:56.468Z,6.60
2022-11-04T14:26:27.610Z,6.60
2022-11-04T14:29:06.020Z,6.70
2022-11-04T14:31:39.366Z,6.70
2022-11-04T14:34:08.418Z,6.70
2022-11-04T14:36:35.133Z,6.60
2022-11-04T14:39:10.219Z,6.70
2022-11-04T14:41:40.150Z,6.70
2022-11-04T14:44:13.106Z,6.70
2022-11-04T14:46:48.038Z,6.70
2022-11-04T14:49:42.324Z,6.60
2022-11-04T14:52:29.543Z,6.70
2022-11-04T14:55:02.383Z,6.70
2022-11-04T14:57:30.979Z,6.60
2022-11-04T14:59:58.113Z,6.50
2022-11-04T15:02:28.754Z,6.60
2022-11-04T15:05:03.390Z,6.60
2022-11-04T15:07:37.023Z,6.50
2022-11-04T15:10:22.638Z,6.60
2022-11-04T15:12:52.301Z,6.60
2022-11-04T15:15:44.446Z,6.60
2022-11-04T15:18:17.024Z,6.50
2022-11-04T15:20:53.143Z,6.50
2022-11-04T15:23:36.719Z,6.50
2022-11-04T15:26:05.009Z,6.50
2022-11-04T15:28:46.322Z,6.50
2022-11-04T15:31:13.555Z,6.50
2022-11-04T15:33:44.356Z,6.50
2022-11-04T15:36:17.585Z,6.50
2022-11-04T15:38:50.027Z,6.50
2022-11-04T15:41:39.770Z,6.50
2022-11-04T15:44:16.187Z,6.50
2022-11-04T15:46:47.603Z,6.50
2022-11-04T15:49:21.788Z,6.50
2022-11-04T15:51:49.291Z,6.40
2022-11-04T15:54:26.834Z,6.40
2022-11-04T15:56:56.422Z,6.30
2022-11-04T15:59:33.450Z,6.30
2022-11-04T16:02:02.472Z,6.20
2022-11-04T16:04:30.337Z,6.20
2022-11-04T16:07:30.018Z,6.10
2022-11-04T16:09:56.906Z,6.20
2022-11-04T16:12:23.676Z,6.20
2022-11-04T16:14:59.508Z,6.10
2022-11-04T16:17:28.185Z,6.20
2022-11-04T16:20:01.098Z,6.10
2022-11-04T16:22:34.163Z,6.10
2022-11-04T16:25:04.927Z,6.00
2022-11-04T16:27:37.114Z,6.00
2022-11-04T16:30:13.443Z,5.90
2022-11-04T16:32:48.991Z,5.80
2022-11-04T16:35:28.145Z,5.70
2022-11-04T16:37:56.092Z,5.80
2022-11-04T16:40:24.166Z,5.50
2022-11-04T16:42:51.182Z,5.40
2022-11-04T16:45:26.599Z,5.60
2022-11-04T16:47:54.701Z,5.60
2022-11-04T16:50:27.457Z,5.30
2022-11-04T16:52:54.309Z,5.30
2022-11-04T16:55:30.316Z,5.20
2022-11-04T16:58:02.737Z,5.30
2022-11-04T17:00:38.517Z,5.40
2022-11-04T17:03:21.803Z,5.30
2022-11-04T17:05:58.953Z,5.20
2022-11-04T17:08:32.401Z,5.30
2022-11-04T17:11:04.220Z,5.30
2022-11-04T17:13:36.549Z,5.30
2022-11-04T17:16:19.433Z,5.50
2022-11-04T17:18:50.476Z,5.40
2022-11-04T17:21:21.767Z,5.60
2022-11-04T17:23:48.820Z,5.50
2022-11-04T17:26:20.777Z,5.70
2022-11-04T17:28:47.751Z,5.60
2022-11-04T17:31:19.598Z,5.50
2022-11-04T17:33:52.071Z,5.50
2022-11-04T17:36:21.493Z,5.40
2022-11-04T17:38:51.165Z,5.40
2022-11-04T17:41:38.463Z,5.40
2022-11-04T17:44:18.065Z,5.30
2022-11-04T17:46:47.716Z,5.40
2022-11-04T17:49:17.741Z,5.50
2022-11-04T17:51:48.069Z,5.40
2022-11-04T17:54:15.436Z,5.40
2022-11-04T17:56:42.978Z,5.50
2022-11-04T17:59:11.962Z,5.40
2022-11-04T18:01:41.708Z,5.40
2022-11-04T18:04:12.506Z,5.40
2022-11-04T18:06:42.428Z,5.50
2022-11-04T18:09:11.055Z,5.40
2022-11-04T18:12:00.047Z,5.40
2022-11-04T18:14:27.413Z,5.30
2022-11-04T18:16:54.392Z,5.30
2022-11-04T18:19:23.446Z,5.40
2022-11-04T18:21:51.293Z,5.30
2022-11-04T18:24:19.348Z,5.30
2022-11-04T18:26:46.396Z,5.20
2022-11-04T18:29:19.668Z,5.20
2022-11-04T18:31:49.970Z,5.40
2022-11-04T18:34:22.225Z,5.40
2022-11-04T18:36:49.387Z,5.40
2022-11-04T18:39:19.767Z,5.30
2022-11-04T18:41:55.354Z,5.40
2022-11-04T18:44:23.388Z,5.30
2022-11-04T18:46:50.644Z,5.20
2022-11-04T18:49:21.042Z,5.10
2022-11-04T18:51:47.785Z,5.20
2022-11-04T18:54:15.119Z,5.20
2022-11-04T18:56:42.718Z,5.20
2022-11-04T18:59:13.958Z,5.20
2022-11-04T19:01:45.877Z,5.30
2022-11-04T19:04:13.735Z,5.30
2022-11-04T19:06:42.939Z,5.30
2022-11-04T19:09:44.776Z,5.50
2022-11-04T19:12:18.416Z,5.20
2022-11-04T19:14:46.091Z,5.00
2022-11-04T19:17:13.102Z,4.70
2022-11-04T19:19:41.251Z,4.80
2022-11-04T19:22:09.056Z,4.80
2022-11-04T19:24:40.427Z,4.60
2022-11-04T19:27:07.515Z,4.60
2022-11-04T19:29:34.256Z,4.60
2022-11-04T19:32:03.708Z,4.50
2022-11-04T19:34:30.578Z,4.50
2022-11-04T19:36:57.323Z,4.60
2022-11-04T19:39:24.044Z,4.50
2022-11-04T19:42:09.304Z,4.50
2022-11-04T19:44:36.053Z,4.50
2022-11-04T19:47:02.955Z,4.40
2022-11-04T19:49:31.522Z,4.40
2022-11-04T19:51:59.499Z,4.50
2022-11-04T19:54:26.839Z,4.50
2022-11-04T19:56:56.448Z,4.40
2022-11-04T19:59:23.341Z,4.30
2022-11-04T20:01:53.055Z,4.30
2022-11-04T20:04:20.181Z,4.30
2022-11-04T20:06:46.979Z,4.30
2022-11-04T20:09:14.153Z,4.30
2022-11-04T20:12:00.126Z,4.20
2022-11-04T20:14:28.493Z,4.20
2022-11-04T20:16:57.175Z,4.20
2022-11-04T20:19:23.891Z,4.30
2022-11-04T20:21:50.994Z,4.20
2022-11-04T20:24:18.352Z,4.10
2022-11-04T20:26:46.652Z,4.20
2022-11-04T20:29:15.933Z,4.20
2022-11-04T20:31:43.698Z,4.30
2022-11-04T20:34:12.549Z,4.20
2022-11-04T20:36:42.213Z,4.20
2022-11-04T20:39:28.504Z,4.10
2022-11-04T20:41:55.279Z,4.10
2022-11-04T20:44:22.067Z,4.10
2022-11-04T20:46:49.001Z,4.20
2022-11-04T20:49:16.060Z,4.10
2022-11-04T20:51:50.202Z,4.10
2022-11-04T20:54:20.913Z,4.10
2022-11-04T20:56:47.902Z,4.10
2022-11-04T20:59:16.699Z,4.00
2022-11-04T21:01:48.209Z,4.10
2022-11-04T21:04:19.865Z,4.00
2022-11-04T21:06:51.628Z,3.90
2022-11-04T21:09:20.263Z,3.90
2022-11-04T21:11:47.466Z,3.90
2022-11-04T21:14:19.853Z,3.90
2022-11-04T21:16:49.264Z,3.90
2022-11-04T21:19:16.278Z,3.90
2022-11-04T21:21:44.186Z,3.90
2022-11-04T21:24:15.695Z,3.90
2022-11-04T21:26:43.651Z,3.80
2022-11-04T21:29:14.373Z,3.70
2022-11-04T21:31:42.236Z,3.80
2022-11-04T21:34:09.156Z,3.70
2022-11-04T21:36:38.944Z,3.80
2022-11-04T21:39:06.241Z,3.90
2022-11-04T21:41:33.673Z,3.90
2022-11-04T21:44:02.608Z,3.90
2022-11-04T21:46:31.220Z,4.00
2022-11-04T21:48:58.628Z,4.00
2022-11-04T21:51:29.005Z,3.90
2022-11-04T21:53:56.918Z,3.90
2022-11-04T21:56:28.972Z,3.80
2022-11-04T21:58:56.198Z,3.80
2022-11-04T22:01:26.874Z,3.80
2022-11-04T22:03:56.454Z,3.90
2022-11-04T22:06:23.268Z,3.90
2022-11-04T22:08:54.347Z,4.00
2022-11-04T22:11:26.626Z,4.00
2022-11-04T22:14:01.201Z,4.00
2022-11-04T22:16:31.161Z,4.10
2022-11-04T22:19:00.261Z,4.20
2022-11-04T22:21:28.333Z,4.20
2022-11-04T22:23:55.782Z,4.20
2022-11-04T22:26:25.666Z,4.30
2022-11-04T22:28:53.688Z,4.30
2022-11-04T22:31:21.853Z,4.30
2022-11-04T22:33:50.038Z,4.40
2022-11-04T22:36:17.410Z,4.40
2022-11-04T22:38:44.463Z,4.30
2022-11-04T22:41:15.053Z,4.30
2022-11-04T22:43:41.936Z,4.30
2022-11-04T22:46:19.002Z,4.20
2022-11-04T22:48:46.004Z,4.30
2022-11-04T22:51:13.485Z,4.20
2022-11-04T22:53:40.721Z,4.20
2022-11-04T22:56:09.560Z,4.30
2022-11-04T22:58:36.426Z,4.30
2022-11-04T23:01:09.404Z,4.30
2022-11-04T23:03:36.279Z,4.40
2022-11-04T23:06:04.736Z,4.40
2022-11-04T23:08:33.037Z,4.40
2022-11-04T23:11:25.047Z,4.50
2022-11-04T23:14:20.750Z,4.40
2022-11-04T23:17:09.045Z,4.60
2022-11-04T23:19:39.151Z,4.50
2022-11-04T23:22:25.500Z,4.60
2022-11-04T23:25:09.595Z,4.60
2022-11-04T23:28:02.217Z,4.60
2022-11-04T23:30:32.543Z,4.80
2022-11-04T23:33:05.019Z,4.70
2022-11-04T23:36:01.036Z,4.60
2022-11-04T23:38:31.404Z,4.80
2022-11-04T23:41:20.201Z,4.80
2022-11-04T23:43:46.896Z,4.80
2022-11-04T23:46:33.704Z,4.90
2022-11-04T23:49:20.584Z,4.90
2022-11-04T23:52:05.914Z,4.80
2022-11-04T23:54:51.202Z,4.90
2022-11-04T23:57:36.931Z,5.00
